createdAt,value
2022-10-03T00:00:16.448Z,4.77
2022-10-03T00:03:21.967Z,5.90
2022-10-03T00:06:07.086Z,5.90
2022-10-03T00:09:13.352Z,5.87
2022-10-03T00:11:53.892Z,6.37
2022-10-03T00:14:30.937Z,5.93
2022-10-03T00:17:06.355Z,5.87
2022-10-03T00:19:43.702Z,5.63
2022-10-03T00:22:24.143Z,5.73
2022-10-03T00:24:58.945Z,6.27
2022-10-03T00:27:34.816Z,6.43
2022-10-03T00:30:22.244Z,6.33
2022-10-03T00:33:17.053Z,7.07
2022-10-03T00:36:04.987Z,6.57
2022-10-03T00:39:00.554Z,6.63
2022-10-03T00:42:08.300Z,7.03
2022-10-03T00:45:33.985Z,6.87
2022-10-03T00:48:35.738Z,7.27
2022-10-03T00:51:27.114Z,6.83
2022-10-03T00:54:08.505Z,6.83
2022-10-03T00:56:59.328Z,7.77
2022-10-03T00:59:36.006Z,7.37
2022-10-03T01:02:27.474Z,7.53
2022-10-03T01:04:59.247Z,7.30
2022-10-03T01:07:33.922Z,7.47
2022-10-03T01:10:20.504Z,7.80
2022-10-03T01:13:04.490Z,7.70
2022-10-03T01:15:58.439Z,7.80
2022-10-03T01:18:41.784Z,7.80
2022-10-03T01:21:18.005Z,7.77
2022-10-03T01:24:21.235Z,7.93
2022-10-03T01:27:00.334Z,8.50
2022-10-03T01:30:00.355Z,8.63
2022-10-03T01:32:35.061Z,9.27
2022-10-03T01:35:16.737Z,8.87
2022-10-03T01:37:51.605Z,8.97
2022-10-03T01:40:30.246Z,8.90
2022-10-03T01:43:11.951Z,8.47
2022-10-03T01:46:00.771Z,9.43
2022-10-03T01:48:34.504Z,9.07
2022-10-03T01:51:07.057Z,9.17
2022-10-03T01:53:44.943Z,9.30
2022-10-03T01:56:22.561Z,10.77
2022-10-03T01:58:57.054Z,10.47
2022-10-03T02:01:36.697Z,10.03
2022-10-03T02:04:14.298Z,11.17
2022-10-03T02:06:47.749Z,10.63
2022-10-03T02:09:22.334Z,11.10
2022-10-03T02:12:03.998Z,10.50
2022-10-03T02:14:35.364Z,10.27
2022-10-03T02:17:11.181Z,9.33
2022-10-03T02:19:48.552Z,11.03
2022-10-03T02:22:31.205Z,9.83
2022-10-03T02:25:14.338Z,10.03
2022-10-03T02:28:30.734Z,10.33
2022-10-03T02:31:45.518Z,9.00
2022-10-03T02:34:42.023Z,10.47
2022-10-03T02:37:52.397Z,9.93
2022-10-03T02:41:05.635Z,10.43
2022-10-03T02:44:04.445Z,9.40
2022-10-03T02:47:07.460Z,9.97
2022-10-03T02:50:14.886Z,10.10
2022-10-03T02:53:16.028Z,9.80
2022-10-03T02:56:08.285Z,10.90
2022-10-03T02:59:26.647Z,9.77
2022-10-03T03:02:24.959Z,9.33
2022-10-03T03:05:29.763Z,8.50
2022-10-03T03:08:24.551Z,10.03
2022-10-03T03:11:22.419Z,9.00
2022-10-03T03:14:19.069Z,9.97
2022-10-03T03:17:13.454Z,8.97
2022-10-03T03:20:12.505Z,9.40
2022-10-03T03:22:48.175Z,9.30
2022-10-03T03:25:42.409Z,8.70
2022-10-03T03:28:24.487Z,10.67
2022-10-03T03:31:00.353Z,9.80
2022-10-03T03:33:40.253Z,9.73
2022-10-03T03:36:17.579Z,10.07
2022-10-03T03:39:04.584Z,9.87
2022-10-03T03:41:46.275Z,9.17
2022-10-03T03:44:46.206Z,11.37
2022-10-03T03:47:31.676Z,10.73
2022-10-03T03:50:24.013Z,10.43
2022-10-03T03:53:08.422Z,10.60
2022-10-03T03:55:56.549Z,10.50
2022-10-03T03:58:34.412Z,10.80
2022-10-03T04:01:21.651Z,11.70
2022-10-03T04:04:02.248Z,12.57
2022-10-03T04:06:46.419Z,11.87
2022-10-03T04:09:25.611Z,11.50
2022-10-03T04:12:09.756Z,10.87
2022-10-03T04:15:01.034Z,11.87
2022-10-03T04:17:56.324Z,11.57
2022-10-03T04:20:40.773Z,10.83
2022-10-03T04:23:29.176Z,10.73
2022-10-03T04:26:11.015Z,10.63
2022-10-03T04:28:53.450Z,10.57
2022-10-03T04:31:35.316Z,11.17
2022-10-03T04:34:22.715Z,10.27
2022-10-03T04:37:14.467Z,9.63
2022-10-03T04:39:50.551Z,11.10
2022-10-03T04:42:27.233Z,11.73
2022-10-03T04:45:11.967Z,10.10
2022-10-03T04:47:46.746Z,10.50
2022-10-03T04:50:34.383Z,11.27
2022-10-03T04:53:20.328Z,10.73
2022-10-03T04:55:55.784Z,10.87
2022-10-03T04:58:35.540Z,10.80
2022-10-03T05:01:17.366Z,10.33
2022-10-03T05:03:55.539Z,11.07
2022-10-03T05:06:39.360Z,10.20
2022-10-03T05:09:18.326Z,9.70
2022-10-03T05:11:50.892Z,10.37
2022-10-03T05:14:28.401Z,10.67
2022-10-03T05:17:04.886Z,10.60
2022-10-03T05:19:49.418Z,9.33
2022-10-03T05:22:24.000Z,9.27
2022-10-03T05:25:02.615Z,10.73
2022-10-03T05:27:42.230Z,9.67
2022-10-03T05:30:18.757Z,10.90
2022-10-03T05:32:51.487Z,9.60
2022-10-03T05:35:32.883Z,9.47
2022-10-03T05:38:30.853Z,9.80
2022-10-03T05:41:07.634Z,9.43
2022-10-03T05:43:53.063Z,10.17
2022-10-03T05:46:32.466Z,10.20
2022-10-03T05:49:21.172Z,10.83
2022-10-03T05:52:06.483Z,10.60
2022-10-03T05:54:49.414Z,9.47
2022-10-03T05:57:43.920Z,10.13
2022-10-03T06:00:20.992Z,10.10
2022-10-03T06:03:30.615Z,10.03
2022-10-03T06:06:21.035Z,9.03
2022-10-03T06:09:34.466Z,9.03
2022-10-03T06:12:10.095Z,9.10
2022-10-03T06:15:07.777Z,10.00
2022-10-03T06:18:02.989Z,9.30
2022-10-03T06:21:08.055Z,9.67
2022-10-03T06:24:11.582Z,9.03
2022-10-03T06:27:12.365Z,9.37
2022-10-03T06:30:13.865Z,9.73
2022-10-03T06:33:40.305Z,9.23
2022-10-03T06:36:27.532Z,9.10
2022-10-03T06:39:44.267Z,8.87
2022-10-03T06:42:47.791Z,8.70
2022-10-03T06:45:55.928Z,8.30
2022-10-03T06:48:52.800Z,9.10
2022-10-03T06:51:46.311Z,9.03
2022-10-03T06:54:44.416Z,9.13
2022-10-03T06:57:35.722Z,8.63
2022-10-03T07:00:15.919Z,8.57
2022-10-03T07:03:32.927Z,7.80
2022-10-03T07:06:23.697Z,8.70
2022-10-03T07:12:54.767Z,8.37
2022-10-03T07:16:08.658Z,8.73
2022-10-03T07:26:12.957Z,7.50
2022-10-03T07:32:52.355Z,7.53
2022-10-03T07:36:00.476Z,6.90
2022-10-03T07:39:05.224Z,8.43
2022-10-03T07:42:26.645Z,8.00
2022-10-03T07:45:30.946Z,7.77
2022-10-03T07:48:31.211Z,7.60
2022-10-03T07:51:16.619Z,8.00
2022-10-03T07:54:18.125Z,8.40
2022-10-03T07:57:08.340Z,8.50
2022-10-03T08:00:22.862Z,9.50
2022-10-03T08:03:49.939Z,8.80
2022-10-03T08:21:12.126Z,7.67
2022-10-03T08:24:23.628Z,8.17
2022-10-03T08:27:29.563Z,8.10
2022-10-03T08:30:25.620Z,8.93
2022-10-03T08:33:00.996Z,9.47
2022-10-03T08:36:12.515Z,10.07
2022-10-03T08:46:09.522Z,8.77
2022-10-03T08:59:17.759Z,8.87
2022-10-03T09:02:05.752Z,7.57
2022-10-03T10:56:53.868Z,3.30
2022-10-03T11:25:44.026Z,3.40
2022-10-03T12:25:59.891Z,3.57
2022-10-03T13:09:42.832Z,3.00
2022-10-03T13:16:05.084Z,3.57
2022-10-03T13:18:49.365Z,3.00
2022-10-03T13:24:14.885Z,3.00
2022-10-03T13:27:32.315Z,2.57
2022-10-03T13:30:29.627Z,3.10
2022-10-03T13:33:14.897Z,3.33
2022-10-03T13:39:30.833Z,3.30
2022-10-03T13:42:13.049Z,3.33
2022-10-03T13:47:47.181Z,3.20
2022-10-03T13:50:20.135Z,3.43
2022-10-03T13:55:58.182Z,2.43
2022-10-03T13:58:38.020Z,2.87
2022-10-03T14:01:34.165Z,2.83
2022-10-03T14:04:39.355Z,2.63
2022-10-03T14:07:19.035Z,2.60
2022-10-03T14:10:22.033Z,2.80
2022-10-03T14:13:20.167Z,2.57
2022-10-03T14:15:53.821Z,2.60
2022-10-03T14:18:44.909Z,2.17
2022-10-03T14:24:17.991Z,2.50
2022-10-03T14:26:59.767Z,2.30
2022-10-03T14:29:38.600Z,2.30
2022-10-03T14:32:42.346Z,2.07
2022-10-03T14:35:22.964Z,1.90
2022-10-03T14:37:58.365Z,2.20
2022-10-03T14:40:38.553Z,2.43
2022-10-03T14:43:27.018Z,2.30
2022-10-03T14:45:59.343Z,2.33
2022-10-03T14:48:58.900Z,2.40
2022-10-03T14:51:33.758Z,2.30
2022-10-03T14:54:09.482Z,2.37
2022-10-03T14:59:58.145Z,2.10
2022-10-03T15:02:32.607Z,2.50
2022-10-03T15:05:09.992Z,2.23
2022-10-03T15:07:42.302Z,2.13
2022-10-03T15:10:15.939Z,2.43
2022-10-03T15:15:39.347Z,2.50
2022-10-03T15:18:24.827Z,2.57
2022-10-03T15:20:58.919Z,2.90
2022-10-03T15:23:34.346Z,2.40
2022-10-03T15:26:07.218Z,2.17
2022-10-03T15:31:40.031Z,2.30
2022-10-03T15:34:25.677Z,2.40
2022-10-03T15:37:10.895Z,2.30
2022-10-03T15:39:49.947Z,2.03
2022-10-03T15:42:36.751Z,2.20
2022-10-03T15:45:19.033Z,2.30
2022-10-03T15:48:04.119Z,1.80
2022-10-03T15:50:41.789Z,2.20
2022-10-03T15:53:37.170Z,1.93
2022-10-03T15:56:15.452Z,2.00
2022-10-03T15:58:55.186Z,1.70
2022-10-03T16:01:58.956Z,1.93
2022-10-03T16:04:43.191Z,1.87
2022-10-03T16:07:15.429Z,2.20
2022-10-03T16:10:02.769Z,2.03
2022-10-03T16:13:00.988Z,2.27
2022-10-03T16:16:09.760Z,1.73
2022-10-03T16:18:52.822Z,1.93
2022-10-03T16:24:31.057Z,2.67
2022-10-03T16:30:41.385Z,2.40
2022-10-03T16:39:51.066Z,2.03
2022-10-03T16:48:44.008Z,2.30
2022-10-03T17:19:07.082Z,2.50
2022-10-03T17:21:42.117Z,2.83
2022-10-03T17:50:19.963Z,6.10
2022-10-03T17:56:35.585Z,6.30
2022-10-03T18:12:51.488Z,8.83
2022-10-03T18:15:27.689Z,7.13
2022-10-03T18:18:34.301Z,6.83
2022-10-03T18:27:46.372Z,5.80
2022-10-03T18:30:21.955Z,6.73
2022-10-03T18:33:00.039Z,5.10
2022-10-03T18:35:34.252Z,5.13
2022-10-03T18:41:32.118Z,4.83
2022-10-03T18:47:31.832Z,4.70
2022-10-03T18:50:27.453Z,6.17
2022-10-03T19:25:28.631Z,4.57
2022-10-03T19:31:03.794Z,5.07
2022-10-03T19:33:53.933Z,4.87
2022-10-03T19:42:09.637Z,4.10
2022-10-03T19:44:40.517Z,4.00
2022-10-03T19:47:17.397Z,4.73
2022-10-03T19:49:56.025Z,3.87
2022-10-03T19:52:29.947Z,3.50
2022-10-03T19:55:16.231Z,4.17
2022-10-03T19:57:48.047Z,6.23
2022-10-03T20:00:37.648Z,7.10
2022-10-03T20:03:10.480Z,6.87
2022-10-03T20:05:45.022Z,7.37
2022-10-03T20:08:23.689Z,7.47
2022-10-03T20:11:05.665Z,6.17
2022-10-03T20:13:34.350Z,6.40
2022-10-03T20:16:05.517Z,6.03
2022-10-03T20:18:34.666Z,6.00
2022-10-03T20:21:04.287Z,6.03
2022-10-03T20:23:35.880Z,6.03
2022-10-03T20:26:10.437Z,5.67
2022-10-03T20:28:58.458Z,5.87
2022-10-03T20:31:29.180Z,5.63
2022-10-03T20:34:00.501Z,5.43
2022-10-03T20:36:31.022Z,6.30
2022-10-03T20:39:13.012Z,6.37
2022-10-03T20:41:53.873Z,5.87
2022-10-03T20:44:39.380Z,6.17
2022-10-03T20:47:13.953Z,6.17
2022-10-03T20:49:48.310Z,6.27
2022-10-03T20:52:20.081Z,6.30
2022-10-03T20:54:52.646Z,5.73
2022-10-03T20:57:25.511Z,5.53
2022-10-03T21:00:17.833Z,6.13
2022-10-03T21:02:52.207Z,5.77
2022-10-03T21:05:25.162Z,5.77
2022-10-03T21:07:55.789Z,5.57
2022-10-03T21:10:30.209Z,7.27
2022-10-03T21:13:02.453Z,7.97
2022-10-03T21:15:42.268Z,6.07
2022-10-03T21:18:20.851Z,6.13
2022-10-03T21:20:49.640Z,6.17
2022-10-03T21:23:24.561Z,6.63
2022-10-03T21:25:58.870Z,5.57
2022-10-03T21:28:29.356Z,5.80
2022-10-03T21:31:29.041Z,5.27
2022-10-03T21:34:02.640Z,6.63
2022-10-03T21:36:39.769Z,6.47
2022-10-03T21:39:18.572Z,6.00
2022-10-03T21:41:59.578Z,6.23
2022-10-03T21:44:53.600Z,7.20
2022-10-03T21:47:34.655Z,8.43
2022-10-03T21:50:07.216Z,7.80
2022-10-03T21:52:52.734Z,8.07
2022-10-03T21:55:51.868Z,8.60
2022-10-03T21:58:45.332Z,8.90
2022-10-03T22:01:24.887Z,7.40
2022-10-03T22:03:55.994Z,7.57
2022-10-03T22:06:26.069Z,8.27
2022-10-03T22:08:54.756Z,7.53
2022-10-03T22:11:35.623Z,7.47
2022-10-03T22:14:16.670Z,6.87
2022-10-03T22:16:54.462Z,7.20
2022-10-03T22:19:32.991Z,7.17
2022-10-03T22:22:13.630Z,6.97
2022-10-03T22:24:50.929Z,7.53
2022-10-03T22:27:25.160Z,7.13
2022-10-03T22:30:02.464Z,6.70
2022-10-03T22:32:38.233Z,6.33
2022-10-03T22:35:23.778Z,7.37
2022-10-03T22:37:52.497Z,6.60
2022-10-03T22:40:21.062Z,7.20
2022-10-03T22:42:53.844Z,7.20
2022-10-03T22:45:24.792Z,6.50
2022-10-03T22:47:56.860Z,7.23
2022-10-03T22:50:30.181Z,6.40
2022-10-03T22:53:00.759Z,6.57
2022-10-03T22:55:29.691Z,6.27
2022-10-03T22:58:00.298Z,5.93
2022-10-03T23:00:33.536Z,6.10
2022-10-03T23:03:07.831Z,5.77
2022-10-03T23:05:56.587Z,5.90
2022-10-03T23:08:31.025Z,5.90
2022-10-03T23:11:04.136Z,6.37
2022-10-03T23:13:38.753Z,6.53
2022-10-03T23:16:18.537Z,6.03
2022-10-03T23:19:08.499Z,5.87
2022-10-03T23:21:46.272Z,6.40
2022-10-03T23:24:27.444Z,6.13
2022-10-03T23:27:26.750Z,6.03
2022-10-03T23:30:30.546Z,6.10
2022-10-03T23:33:00.644Z,6.07
2022-10-03T23:35:41.759Z,5.73
2022-10-03T23:38:48.374Z,6.70
2022-10-03T23:41:28.813Z,5.50
2022-10-03T23:43:58.937Z,5.80
2022-10-03T23:46:30.795Z,6.00
2022-10-03T23:49:03.475Z,5.53
2022-10-03T23:51:36.013Z,5.50
2022-10-03T23:54:07.454Z,5.80
2022-10-03T23:56:40.241Z,5.80
2022-10-03T23:59:21.326Z,5.77
